sensor_id;sensor_type;location;lat;lon;timestamp;P1;durP1;ratioP1;P2;durP2;ratioP2
47958;SDS011;33718;50.910;-1.514;2023-07-13T00:00:37;4.72;;;1.70;;
47958;SDS011;33718;50.910;-1.514;2023-07-13T00:02:45;7.13;;;1.65;;
47958;SDS011;33718;50.910;-1.514;2023-07-13T00:05:05;8.57;;;1.67;;
47958;SDS011;33718;50.910;-1.514;2023-07-13T00:07:10;9.98;;;1.90;;
47958;SDS011;33718;50.910;-1.514;2023-07-13T00:09:15;10.45;;;1.80;;
47958;SDS011;33718;50.910;-1.514;2023-07-13T00:11:17;7.65;;;2.55;;
47958;SDS011;33718;50.910;-1.514;2023-07-13T00:13:19;8.50;;;2.53;;
47958;SDS011;33718;50.910;-1.514;2023-07-13T00:15:25;7.28;;;2.00;;
47958;SDS011;33718;50.910;-1.514;2023-07-13T00:17:27;6.68;;;1.95;;
47958;SDS011;33718;50.910;-1.514;2023-07-13T00:19:29;5.38;;;2.30;;
47958;SDS011;33718;50.910;-1.514;2023-07-13T00:21:30;6.05;;;2.08;;
47958;SDS011;33718;50.910;-1.514;2023-07-13T00:23:33;8.45;;;2.20;;
47958;SDS011;33718;50.910;-1.514;2023-07-13T00:25:35;14.43;;;3.17;;
47958;SDS011;33718;50.910;-1.514;2023-07-13T00:29:43;8.10;;;2.20;;
47958;SDS011;33718;50.910;-1.514;2023-07-13T00:31:48;9.02;;;2.35;;
47958;SDS011;33718;50.910;-1.514;2023-07-13T00:33:50;10.02;;;1.92;;
47958;SDS011;33718;50.910;-1.514;2023-07-13T00:35:55;8.20;;;1.90;;
47958;SDS011;33718;50.910;-1.514;2023-07-13T00:37:59;14.18;;;2.13;;
47958;SDS011;33718;50.910;-1.514;2023-07-13T00:40:02;8.18;;;2.13;;
47958;SDS011;33718;50.910;-1.514;2023-07-13T00:42:23;8.75;;;2.17;;
47958;SDS011;33718;50.910;-1.514;2023-07-13T00:44:27;5.55;;;1.77;;
47958;SDS011;33718;50.910;-1.514;2023-07-13T00:46:30;8.60;;;1.95;;
47958;SDS011;33718;50.910;-1.514;2023-07-13T00:48:32;10.75;;;2.25;;
47958;SDS011;33718;50.910;-1.514;2023-07-13T00:50:37;11.40;;;2.28;;
47958;SDS011;33718;50.910;-1.514;2023-07-13T00:52:39;6.47;;;2.00;;
47958;SDS011;33718;50.910;-1.514;2023-07-13T00:54:45;8.90;;;1.77;;
47958;SDS011;33718;50.910;-1.514;2023-07-13T00:56:50;12.38;;;2.22;;
47958;SDS011;33718;50.910;-1.514;2023-07-13T00:59:12;9.85;;;2.20;;
47958;SDS011;33718;50.910;-1.514;2023-07-13T01:01:17;10.95;;;2.00;;
47958;SDS011;33718;50.910;-1.514;2023-07-13T01:03:37;5.80;;;2.28;;
47958;SDS011;33718;50.910;-1.514;2023-07-13T01:05:42;11.35;;;2.45;;
47958;SDS011;33718;50.910;-1.514;2023-07-13T01:07:44;10.35;;;2.00;;
47958;SDS011;33718;50.910;-1.514;2023-07-13T01:09:46;11.00;;;3.60;;
47958;SDS011;33718;50.910;-1.514;2023-07-13T01:12:06;7.38;;;1.75;;
47958;SDS011;33718;50.910;-1.514;2023-07-13T01:14:08;10.27;;;1.98;;
47958;SDS011;33718;50.910;-1.514;2023-07-13T01:16:13;9.43;;;3.13;;
47958;SDS011;33718;50.910;-1.514;2023-07-13T01:18:34;13.38;;;1.75;;
47958;SDS011;33718;50.910;-1.514;2023-07-13T01:20:39;9.90;;;2.30;;
47958;SDS011;33718;50.910;-1.514;2023-07-13T01:22:40;10.40;;;2.10;;
47958;SDS011;33718;50.910;-1.514;2023-07-13T01:24:43;10.85;;;2.10;;
47958;SDS011;33718;50.910;-1.514;2023-07-13T01:27:04;11.57;;;1.95;;
47958;SDS011;33718;50.910;-1.514;2023-07-13T01:29:07;6.88;;;2.08;;
47958;SDS011;33718;50.910;-1.514;2023-07-13T01:31:27;11.50;;;2.30;;
47958;SDS011;33718;50.910;-1.514;2023-07-13T01:33:48;12.63;;;2.20;;
47958;SDS011;33718;50.910;-1.514;2023-07-13T01:35:55;8.25;;;1.60;;
47958;SDS011;33718;50.910;-1.514;2023-07-13T01:38:18;12.57;;;2.05;;
47958;SDS011;33718;50.910;-1.514;2023-07-13T01:40:23;8.65;;;1.95;;
47958;SDS011;33718;50.910;-1.514;2023-07-13T01:42:26;9.57;;;2.28;;
47958;SDS011;33718;50.910;-1.514;2023-07-13T01:44:30;8.80;;;1.92;;
47958;SDS011;33718;50.910;-1.514;2023-07-13T01:46:32;14.20;;;2.10;;
47958;SDS011;33718;50.910;-1.514;2023-07-13T01:48:33;10.02;;;2.28;;
47958;SDS011;33718;50.910;-1.514;2023-07-13T01:50:35;12.45;;;2.15;;
47958;SDS011;33718;50.910;-1.514;2023-07-13T01:52:36;12.05;;;2.35;;
47958;SDS011;33718;50.910;-1.514;2023-07-13T01:54:41;6.70;;;2.00;;
47958;SDS011;33718;50.910;-1.514;2023-07-13T01:56:42;6.70;;;2.00;;
47958;SDS011;33718;50.910;-1.514;2023-07-13T01:59:02;8.40;;;2.40;;
47958;SDS011;33718;50.910;-1.514;2023-07-13T02:01:06;4.95;;;1.70;;
47958;SDS011;33718;50.910;-1.514;2023-07-13T02:03:11;9.38;;;1.63;;
47958;SDS011;33718;50.910;-1.514;2023-07-13T02:05:15;10.68;;;1.90;;
47958;SDS011;33718;50.910;-1.514;2023-07-13T02:07:17;13.70;;;2.28;;
47958;SDS011;33718;50.910;-1.514;2023-07-13T02:09:21;7.72;;;1.67;;
47958;SDS011;33718;50.910;-1.514;2023-07-13T02:11:25;3.92;;;1.50;;
47958;SDS011;33718;50.910;-1.514;2023-07-13T02:13:37;7.05;;;2.00;;
47958;SDS011;33718;50.910;-1.514;2023-07-13T02:15:39;4.47;;;1.33;;
47958;SDS011;33718;50.910;-1.514;2023-07-13T02:18:00;5.63;;;1.67;;
47958;SDS011;33718;50.910;-1.514;2023-07-13T02:20:02;6.70;;;2.50;;
47958;SDS011;33718;50.910;-1.514;2023-07-13T02:22:07;5.05;;;1.45;;
47958;SDS011;33718;50.910;-1.514;2023-07-13T02:24:12;6.65;;;1.48;;
47958;SDS011;33718;50.910;-1.514;2023-07-13T02:26:18;6.45;;;1.75;;
47958;SDS011;33718;50.910;-1.514;2023-07-13T02:30:26;6.00;;;1.60;;
47958;SDS011;33718;50.910;-1.514;2023-07-13T02:32:32;7.45;;;1.92;;
47958;SDS011;33718;50.910;-1.514;2023-07-13T02:34:40;9.00;;;1.73;;
47958;SDS011;33718;50.910;-1.514;2023-07-13T02:36:54;6.25;;;1.80;;
47958;SDS011;33718;50.910;-1.514;2023-07-13T02:39:13;9.45;;;2.17;;
47958;SDS011;33718;50.910;-1.514;2023-07-13T02:41:29;10.57;;;2.00;;
47958;SDS011;33718;50.910;-1.514;2023-07-13T02:43:44;4.47;;;2.08;;
47958;SDS011;33718;50.910;-1.514;2023-07-13T02:45:58;3.00;;;1.70;;
47958;SDS011;33718;50.910;-1.514;2023-07-13T02:48:19;4.10;;;1.88;;
47958;SDS011;33718;50.910;-1.514;2023-07-13T02:50:30;4.97;;;1.92;;
47958;SDS011;33718;50.910;-1.514;2023-07-13T02:52:44;6.20;;;1.50;;
47958;SDS011;33718;50.910;-1.514;2023-07-13T02:54:51;3.30;;;1.48;;
47958;SDS011;33718;50.910;-1.514;2023-07-13T02:57:16;6.88;;;1.70;;
47958;SDS011;33718;50.910;-1.514;2023-07-13T02:59:27;8.93;;;1.30;;
47958;SDS011;33718;50.910;-1.514;2023-07-13T03:01:40;12.52;;;1.80;;
47958;SDS011;33718;50.910;-1.514;2023-07-13T03:03:52;2.55;;;1.55;;
47958;SDS011;33718;50.910;-1.514;2023-07-13T03:06:02;6.72;;;2.35;;
47958;SDS011;33718;50.910;-1.514;2023-07-13T03:08:08;1.42;;;1.20;;
47958;SDS011;33718;50.910;-1.514;2023-07-13T03:10:12;4.47;;;1.13;;
47958;SDS011;33718;50.910;-1.514;2023-07-13T03:12:14;3.20;;;1.20;;
47958;SDS011;33718;50.910;-1.514;2023-07-13T03:16:22;6.47;;;1.55;;
47958;SDS011;33718;50.910;-1.514;2023-07-13T03:18:26;3.95;;;1.15;;
47958;SDS011;33718;50.910;-1.514;2023-07-13T03:20:32;4.32;;;1.38;;
47958;SDS011;33718;50.910;-1.514;2023-07-13T03:22:34;7.03;;;1.63;;
47958;SDS011;33718;50.910;-1.514;2023-07-13T03:24:38;2.25;;;1.20;;
47958;SDS011;33718;50.910;-1.514;2023-07-13T03:26:40;7.57;;;1.48;;
47958;SDS011;33718;50.910;-1.514;2023-07-13T03:28:42;6.60;;;1.52;;
47958;SDS011;33718;50.910;-1.514;2023-07-13T03:30:43;7.82;;;1.85;;
47958;SDS011;33718;50.910;-1.514;2023-07-13T03:32:45;8.05;;;1.60;;
47958;SDS011;33718;50.910;-1.514;2023-07-13T03:34:50;3.33;;;1.88;;
47958;SDS011;33718;50.910;-1.514;2023-07-13T03:36:54;5.28;;;1.35;;
47958;SDS011;33718;50.910;-1.514;2023-07-13T03:39:00;3.95;;;1.45;;
47958;SDS011;33718;50.910;-1.514;2023-07-13T03:41:02;11.00;;;2.10;;
47958;SDS011;33718;50.910;-1.514;2023-07-13T03:43:03;8.65;;;2.28;;
47958;SDS011;33718;50.910;-1.514;2023-07-13T03:45:23;11.15;;;1.63;;
47958;SDS011;33718;50.910;-1.514;2023-07-13T03:49:47;7.25;;;2.20;;
47958;SDS011;33718;50.910;-1.514;2023-07-13T03:51:52;7.60;;;2.05;;
47958;SDS011;33718;50.910;-1.514;2023-07-13T03:53:57;3.08;;;1.23;;
47958;SDS011;33718;50.910;-1.514;2023-07-13T03:55:59;5.68;;;1.70;;
47958;SDS011;33718;50.910;-1.514;2023-07-13T04:00:23;5.38;;;1.85;;
47958;SDS011;33718;50.910;-1.514;2023-07-13T04:02:27;6.57;;;1.60;;
47958;SDS011;33718;50.910;-1.514;2023-07-13T04:04:31;6.63;;;1.50;;
47958;SDS011;33718;50.910;-1.514;2023-07-13T04:06:33;2.40;;;1.60;;
47958;SDS011;33718;50.910;-1.514;2023-07-13T04:08:37;5.32;;;1.65;;
47958;SDS011;33718;50.910;-1.514;2023-07-13T04:10:39;5.55;;;2.08;;
47958;SDS011;33718;50.910;-1.514;2023-07-13T04:14:44;4.45;;;1.52;;
47958;SDS011;33718;50.910;-1.514;2023-07-13T04:16:46;5.82;;;1.33;;
47958;SDS011;33718;50.910;-1.514;2023-07-13T04:18:51;5.03;;;2.03;;
47958;SDS011;33718;50.910;-1.514;2023-07-13T04:20:56;6.13;;;1.60;;
47958;SDS011;33718;50.910;-1.514;2023-07-13T04:23:00;4.13;;;1.75;;
47958;SDS011;33718;50.910;-1.514;2023-07-13T04:25:21;4.60;;;1.45;;
47958;SDS011;33718;50.910;-1.514;2023-07-13T04:27:25;4.88;;;1.60;;
47958;SDS011;33718;50.910;-1.514;2023-07-13T04:29:30;4.47;;;1.10;;
47958;SDS011;33718;50.910;-1.514;2023-07-13T04:31:34;11.43;;;2.00;;
47958;SDS011;33718;50.910;-1.514;2023-07-13T04:33:36;5.53;;;1.42;;
47958;SDS011;33718;50.910;-1.514;2023-07-13T04:35:37;4.18;;;1.98;;
47958;SDS011;33718;50.910;-1.514;2023-07-13T04:37:39;6.03;;;1.45;;
47958;SDS011;33718;50.910;-1.514;2023-07-13T04:39:41;5.03;;;1.63;;
47958;SDS011;33718;50.910;-1.514;2023-07-13T04:42:01;3.65;;;1.15;;
47958;SDS011;33718;50.910;-1.514;2023-07-13T04:44:21;5.03;;;1.77;;
47958;SDS011;33718;50.910;-1.514;2023-07-13T04:46:22;4.03;;;1.45;;
47958;SDS011;33718;50.910;-1.514;2023-07-13T04:48:24;7.15;;;1.70;;
47958;SDS011;33718;50.910;-1.514;2023-07-13T04:50:28;3.67;;;1.40;;
47958;SDS011;33718;50.910;-1.514;2023-07-13T04:52:30;7.43;;;2.00;;
47958;SDS011;33718;50.910;-1.514;2023-07-13T04:54:34;4.20;;;1.50;;
47958;SDS011;33718;50.910;-1.514;2023-07-13T04:56:39;7.78;;;1.95;;
47958;SDS011;33718;50.910;-1.514;2023-07-13T05:00:47;2.25;;;1.83;;
47958;SDS011;33718;50.910;-1.514;2023-07-13T05:02:48;7.28;;;1.63;;
47958;SDS011;33718;50.910;-1.514;2023-07-13T05:04:53;6.60;;;1.52;;
47958;SDS011;33718;50.910;-1.514;2023-07-13T05:06:55;6.05;;;1.58;;
47958;SDS011;33718;50.910;-1.514;2023-07-13T05:08:59;6.38;;;1.70;;
47958;SDS011;33718;50.910;-1.514;2023-07-13T05:11:03;3.92;;;1.38;;
47958;SDS011;33718;50.910;-1.514;2023-07-13T05:13:08;7.18;;;1.52;;
47958;SDS011;33718;50.910;-1.514;2023-07-13T05:15:09;6.78;;;1.27;;
47958;SDS011;33718;50.910;-1.514;2023-07-13T05:17:14;7.00;;;1.85;;
47958;SDS011;33718;50.910;-1.514;2023-07-13T05:19:18;4.50;;;1.60;;
47958;SDS011;33718;50.910;-1.514;2023-07-13T05:21:22;6.82;;;1.75;;
47958;SDS011;33718;50.910;-1.514;2023-07-13T05:23:24;7.10;;;1.92;;
47958;SDS011;33718;50.910;-1.514;2023-07-13T05:25:29;5.15;;;1.75;;
47958;SDS011;33718;50.910;-1.514;2023-07-13T05:27:30;4.82;;;1.50;;
47958;SDS011;33718;50.910;-1.514;2023-07-13T05:29:32;7.57;;;2.13;;
47958;SDS011;33718;50.910;-1.514;2023-07-13T05:31:34;2.65;;;1.50;;
47958;SDS011;33718;50.910;-1.514;2023-07-13T05:33:54;5.38;;;1.70;;
47958;SDS011;33718;50.910;-1.514;2023-07-13T05:35:58;9.50;;;1.92;;
47958;SDS011;33718;50.910;-1.514;2023-07-13T05:38:05;5.88;;;2.40;;
47958;SDS011;33718;50.910;-1.514;2023-07-13T05:40:26;9.38;;;2.15;;
47958;SDS011;33718;50.910;-1.514;2023-07-13T05:42:30;6.57;;;1.83;;
47958;SDS011;33718;50.910;-1.514;2023-07-13T05:44:32;3.78;;;1.48;;
47958;SDS011;33718;50.910;-1.514;2023-07-13T05:46:37;4.85;;;1.98;;
47958;SDS011;33718;50.910;-1.514;2023-07-13T05:48:42;9.07;;;2.28;;
47958;SDS011;33718;50.910;-1.514;2023-07-13T05:50:47;6.25;;;1.98;;
47958;SDS011;33718;50.910;-1.514;2023-07-13T05:52:51;6.88;;;1.90;;
47958;SDS011;33718;50.910;-1.514;2023-07-13T05:54:57;13.82;;;1.83;;
47958;SDS011;33718;50.910;-1.514;2023-07-13T05:57:02;7.65;;;2.35;;
47958;SDS011;33718;50.910;-1.514;2023-07-13T05:59:06;6.47;;;2.05;;
47958;SDS011;33718;50.910;-1.514;2023-07-13T06:01:12;6.35;;;2.42;;
47958;SDS011;33718;50.910;-1.514;2023-07-13T06:03:18;10.57;;;2.42;;
47958;SDS011;33718;50.910;-1.514;2023-07-13T06:05:19;8.15;;;2.67;;
47958;SDS011;33718;50.910;-1.514;2023-07-13T06:07:21;7.22;;;2.10;;
47958;SDS011;33718;50.910;-1.514;2023-07-13T06:09:23;7.00;;;2.20;;
47958;SDS011;33718;50.910;-1.514;2023-07-13T06:11:25;3.40;;;1.60;;
47958;SDS011;33718;50.910;-1.514;2023-07-13T06:13:30;8.00;;;2.00;;
47958;SDS011;33718;50.910;-1.514;2023-07-13T06:15:34;6.97;;;2.35;;
47958;SDS011;33718;50.910;-1.514;2023-07-13T06:17:36;9.52;;;1.98;;
47958;SDS011;33718;50.910;-1.514;2023-07-13T06:19:37;6.00;;;1.90;;
47958;SDS011;33718;50.910;-1.514;2023-07-13T06:21:39;7.53;;;2.17;;
47958;SDS011;33718;50.910;-1.514;2023-07-13T06:23:41;11.95;;;1.98;;
47958;SDS011;33718;50.910;-1.514;2023-07-13T06:25:45;5.80;;;2.00;;
47958;SDS011;33718;50.910;-1.514;2023-07-13T06:27:47;10.50;;;2.08;;
47958;SDS011;33718;50.910;-1.514;2023-07-13T06:29:48;11.05;;;2.28;;
47958;SDS011;33718;50.910;-1.514;2023-07-13T06:31:52;8.45;;;2.22;;
47958;SDS011;33718;50.910;-1.514;2023-07-13T06:33:54;13.98;;;2.25;;
47958;SDS011;33718;50.910;-1.514;2023-07-13T06:35:55;7.57;;;2.50;;
47958;SDS011;33718;50.910;-1.514;2023-07-13T06:37:57;5.85;;;2.28;;
47958;SDS011;33718;50.910;-1.514;2023-07-13T06:39:59;12.02;;;2.53;;
47958;SDS011;33718;50.910;-1.514;2023-07-13T06:42:00;4.80;;;1.88;;
47958;SDS011;33718;50.910;-1.514;2023-07-13T06:44:20;5.50;;;1.85;;
47958;SDS011;33718;50.910;-1.514;2023-07-13T06:46:22;8.35;;;2.00;;
47958;SDS011;33718;50.910;-1.514;2023-07-13T06:48:27;10.70;;;2.35;;
47958;SDS011;33718;50.910;-1.514;2023-07-13T06:50:29;10.27;;;2.40;;
47958;SDS011;33718;50.910;-1.514;2023-07-13T06:52:34;4.40;;;1.33;;
47958;SDS011;33718;50.910;-1.514;2023-07-13T06:54:39;6.72;;;1.90;;
47958;SDS011;33718;50.910;-1.514;2023-07-13T06:56:40;8.70;;;1.80;;
47958;SDS011;33718;50.910;-1.514;2023-07-13T06:58:42;10.20;;;1.83;;
47958;SDS011;33718;50.910;-1.514;2023-07-13T07:00:46;6.88;;;2.20;;
47958;SDS011;33718;50.910;-1.514;2023-07-13T07:02:51;4.65;;;1.88;;
47958;SDS011;33718;50.910;-1.514;2023-07-13T07:04:52;6.82;;;2.22;;
47958;SDS011;33718;50.910;-1.514;2023-07-13T07:06:58;6.70;;;1.63;;
47958;SDS011;33718;50.910;-1.514;2023-07-13T07:09:02;4.82;;;1.52;;
47958;SDS011;33718;50.910;-1.514;2023-07-13T07:11:16;10.77;;;1.98;;
47958;SDS011;33718;50.910;-1.514;2023-07-13T07:13:17;7.93;;;1.65;;
47958;SDS011;33718;50.910;-1.514;2023-07-13T07:15:19;7.95;;;3.60;;
47958;SDS011;33718;50.910;-1.514;2023-07-13T07:17:20;2.38;;;1.60;;
47958;SDS011;33718;50.910;-1.514;2023-07-13T07:19:25;3.75;;;1.90;;
47958;SDS011;33718;50.910;-1.514;2023-07-13T07:21:45;10.40;;;1.55;;
47958;SDS011;33718;50.910;-1.514;2023-07-13T07:25:50;5.97;;;1.75;;
47958;SDS011;33718;50.910;-1.514;2023-07-13T07:27:55;4.97;;;1.83;;
47958;SDS011;33718;50.910;-1.514;2023-07-13T07:30:18;6.00;;;1.55;;
47958;SDS011;33718;50.910;-1.514;2023-07-13T07:32:23;6.18;;;1.50;;
47958;SDS011;33718;50.910;-1.514;2023-07-13T07:34:27;5.95;;;2.35;;
47958;SDS011;33718;50.910;-1.514;2023-07-13T07:36:31;6.68;;;1.75;;
47958;SDS011;33718;50.910;-1.514;2023-07-13T07:38:39;4.05;;;1.45;;
47958;SDS011;33718;50.910;-1.514;2023-07-13T07:40:43;10.02;;;3.22;;
47958;SDS011;33718;50.910;-1.514;2023-07-13T07:42:50;7.45;;;2.25;;
47958;SDS011;33718;50.910;-1.514;2023-07-13T07:44:52;9.23;;;1.50;;
47958;SDS011;33718;50.910;-1.514;2023-07-13T07:46:54;9.82;;;2.15;;
47958;SDS011;33718;50.910;-1.514;2023-07-13T07:48:56;4.88;;;1.58;;
47958;SDS011;33718;50.910;-1.514;2023-07-13T07:51:16;4.75;;;1.50;;
47958;SDS011;33718;50.910;-1.514;2023-07-13T07:53:21;7.00;;;1.52;;
47958;SDS011;33718;50.910;-1.514;2023-07-13T07:55:22;6.00;;;1.17;;
47958;SDS011;33718;50.910;-1.514;2023-07-13T07:57:46;7.47;;;1.27;;
47958;SDS011;33718;50.910;-1.514;2023-07-13T07:59:53;5.22;;;1.20;;
47958;SDS011;33718;50.910;-1.514;2023-07-13T08:01:58;3.65;;;1.20;;
47958;SDS011;33718;50.910;-1.514;2023-07-13T08:04:05;9.38;;;1.70;;
47958;SDS011;33718;50.910;-1.514;2023-07-13T08:06:10;3.83;;;1.20;;
47958;SDS011;33718;50.910;-1.514;2023-07-13T08:08:14;3.83;;;1.40;;
47958;SDS011;33718;50.910;-1.514;2023-07-13T08:10:16;6.32;;;2.20;;
47958;SDS011;33718;50.910;-1.514;2023-07-13T08:12:17;3.47;;;1.30;;
47958;SDS011;33718;50.910;-1.514;2023-07-13T08:14:39;3.25;;;1.20;;
47958;SDS011;33718;50.910;-1.514;2023-07-13T08:16:53;7.55;;;1.17;;
47958;SDS011;33718;50.910;-1.514;2023-07-13T08:18:55;7.43;;;1.27;;
47958;SDS011;33718;50.910;-1.514;2023-07-13T08:21:03;6.63;;;1.30;;
47958;SDS011;33718;50.910;-1.514;2023-07-13T08:23:07;6.28;;;1.02;;
47958;SDS011;33718;50.910;-1.514;2023-07-13T08:25:13;5.13;;;1.42;;
47958;SDS011;33718;50.910;-1.514;2023-07-13T08:27:17;4.35;;;1.23;;
47958;SDS011;33718;50.910;-1.514;2023-07-13T08:29:20;5.03;;;1.35;;
47958;SDS011;33718;50.910;-1.514;2023-07-13T08:31:21;4.60;;;1.02;;
47958;SDS011;33718;50.910;-1.514;2023-07-13T08:33:26;1.83;;;0.98;;
47958;SDS011;33718;50.910;-1.514;2023-07-13T08:35:49;3.75;;;0.77;;
47958;SDS011;33718;50.910;-1.514;2023-07-13T08:37:51;4.38;;;0.95;;
47958;SDS011;33718;50.910;-1.514;2023-07-13T08:39:56;3.90;;;0.98;;
47958;SDS011;33718;50.910;-1.514;2023-07-13T08:46:43;3.25;;;0.73;;
47958;SDS011;33718;50.910;-1.514;2023-07-13T08:48:55;8.07;;;1.13;;
47958;SDS011;33718;50.910;-1.514;2023-07-13T08:53:08;3.88;;;0.90;;
47958;SDS011;33718;50.910;-1.514;2023-07-13T08:55:18;6.38;;;0.70;;
47958;SDS011;33718;50.910;-1.514;2023-07-13T08:57:25;4.65;;;0.68;;
47958;SDS011;33718;50.910;-1.514;2023-07-13T08:59:34;5.30;;;1.17;;
47958;SDS011;33718;50.910;-1.514;2023-07-13T09:01:46;4.53;;;0.85;;
47958;SDS011;33718;50.910;-1.514;2023-07-13T09:06:12;1.83;;;0.50;;
47958;SDS011;33718;50.910;-1.514;2023-07-13T09:10:45;2.17;;;0.40;;
47958;SDS011;33718;50.910;-1.514;2023-07-13T09:12:55;1.08;;;0.32;;
47958;SDS011;33718;50.910;-1.514;2023-07-13T09:15:04;1.97;;;0.50;;
47958;SDS011;33718;50.910;-1.514;2023-07-13T09:19:14;1.33;;;0.20;;
47958;SDS011;33718;50.910;-1.514;2023-07-13T09:23:27;0.63;;;0.40;;
47958;SDS011;33718;50.910;-1.514;2023-07-13T09:25:31;4.40;;;0.50;;
47958;SDS011;33718;50.910;-1.514;2023-07-13T09:27:35;0.85;;;0.50;;
47958;SDS011;33718;50.910;-1.514;2023-07-13T09:29:37;2.13;;;0.50;;
47958;SDS011;33718;50.910;-1.514;2023-07-13T09:31:45;2.38;;;0.47;;
47958;SDS011;33718;50.910;-1.514;2023-07-13T09:33:49;1.42;;;0.60;;
47958;SDS011;33718;50.910;-1.514;2023-07-13T09:35:52;1.73;;;0.50;;
47958;SDS011;33718;50.910;-1.514;2023-07-13T09:37:57;0.88;;;0.30;;
47958;SDS011;33718;50.910;-1.514;2023-07-13T09:40:05;3.30;;;0.63;;
47958;SDS011;33718;50.910;-1.514;2023-07-13T09:44:33;2.05;;;0.45;;
47958;SDS011;33718;50.910;-1.514;2023-07-13T09:46:46;1.02;;;0.28;;
47958;SDS011;33718;50.910;-1.514;2023-07-13T09:48:50;1.45;;;0.40;;
47958;SDS011;33718;50.910;-1.514;2023-07-13T09:50:55;2.13;;;0.40;;
47958;SDS011;33718;50.910;-1.514;2023-07-13T09:53:01;0.82;;;0.52;;
47958;SDS011;33718;50.910;-1.514;2023-07-13T09:57:29;2.95;;;0.47;;
47958;SDS011;33718;50.910;-1.514;2023-07-13T09:59:51;1.17;;;0.30;;
47958;SDS011;33718;50.910;-1.514;2023-07-13T10:01:56;1.40;;;0.30;;
47958;SDS011;33718;50.910;-1.514;2023-07-13T10:04:19;1.52;;;0.60;;
47958;SDS011;33718;50.910;-1.514;2023-07-13T10:06:22;0.82;;;0.32;;
47958;SDS011;33718;50.910;-1.514;2023-07-13T10:08:27;1.65;;;0.30;;
47958;SDS011;33718;50.910;-1.514;2023-07-13T10:10:29;0.52;;;0.28;;
47958;SDS011;33718;50.910;-1.514;2023-07-13T10:12:35;2.00;;;0.40;;
47958;SDS011;33718;50.910;-1.514;2023-07-13T10:14:41;3.10;;;0.30;;
47958;SDS011;33718;50.910;-1.514;2023-07-13T10:17:02;2.13;;;0.50;;
47958;SDS011;33718;50.910;-1.514;2023-07-13T10:19:09;1.23;;;0.52;;
47958;SDS011;33718;50.910;-1.514;2023-07-13T10:21:39;0.98;;;0.20;;
47958;SDS011;33718;50.910;-1.514;2023-07-13T10:23:48;0.38;;;0.20;;
47958;SDS011;33718;50.910;-1.514;2023-07-13T10:25:51;0.82;;;0.30;;
47958;SDS011;33718;50.910;-1.514;2023-07-13T10:27:53;0.88;;;0.30;;
47958;SDS011;33718;50.910;-1.514;2023-07-13T10:30:00;1.13;;;0.40;;
47958;SDS011;33718;50.910;-1.514;2023-07-13T10:32:09;1.52;;;0.40;;
47958;SDS011;33718;50.910;-1.514;2023-07-13T10:34:12;3.55;;;0.50;;
47958;SDS011;33718;50.910;-1.514;2023-07-13T10:37:02;0.70;;;0.30;;
47958;SDS011;33718;50.910;-1.514;2023-07-13T10:38:41;0.25;;;0.25;;
47958;SDS011;33718;50.910;-1.514;2023-07-13T10:40:54;4.20;;;0.45;;
47958;SDS011;33718;50.910;-1.514;2023-07-13T10:42:57;1.35;;;0.40;;
47958;SDS011;33718;50.910;-1.514;2023-07-13T10:45:04;0.82;;;0.45;;
47958;SDS011;33718;50.910;-1.514;2023-07-13T10:47:14;2.30;;;0.55;;
47958;SDS011;33718;50.910;-1.514;2023-07-13T10:49:16;2.03;;;0.50;;
47958;SDS011;33718;50.910;-1.514;2023-07-13T10:51:21;4.18;;;0.75;;
47958;SDS011;33718;50.910;-1.514;2023-07-13T10:53:30;5.18;;;0.60;;
47958;SDS011;33718;50.910;-1.514;2023-07-13T10:55:40;3.80;;;0.77;;
47958;SDS011;33718;50.910;-1.514;2023-07-13T10:58:15;7.15;;;1.25;;
47958;SDS011;33718;50.910;-1.514;2023-07-13T11:00:22;5.40;;;1.05;;
47958;SDS011;33718;50.910;-1.514;2023-07-13T11:02:27;5.05;;;1.17;;
47958;SDS011;33718;50.910;-1.514;2023-07-13T11:04:39;7.22;;;1.48;;
47958;SDS011;33718;50.910;-1.514;2023-07-13T11:06:41;5.20;;;1.15;;
47958;SDS011;33718;50.910;-1.514;2023-07-13T11:10:54;12.80;;;2.60;;
47958;SDS011;33718;50.910;-1.514;2023-07-13T11:12:56;7.07;;;1.48;;
47958;SDS011;33718;50.910;-1.514;2023-07-13T11:15:02;11.52;;;2.17;;
47958;SDS011;33718;50.910;-1.514;2023-07-13T11:19:41;5.05;;;1.45;;
47958;SDS011;33718;50.910;-1.514;2023-07-13T11:28:36;2.85;;;1.48;;
47958;SDS011;33718;50.910;-1.514;2023-07-13T11:33:22;5.30;;;1.52;;
47958;SDS011;33718;50.910;-1.514;2023-07-13T11:35:24;6.20;;;1.52;;
47958;SDS011;33718;50.910;-1.514;2023-07-13T11:37:46;4.47;;;1.38;;
47958;SDS011;33718;50.910;-1.514;2023-07-13T11:39:47;4.85;;;1.50;;
47958;SDS011;33718;50.910;-1.514;2023-07-13T11:41:54;3.38;;;1.30;;
47958;SDS011;33718;50.910;-1.514;2023-07-13T11:44:19;3.03;;;1.58;;
47958;SDS011;33718;50.910;-1.514;2023-07-13T11:46:25;7.13;;;1.50;;
47958;SDS011;33718;50.910;-1.514;2023-07-13T11:50:34;8.18;;;1.33;;
47958;SDS011;33718;50.910;-1.514;2023-07-13T11:52:41;5.22;;;1.65;;
47958;SDS011;33718;50.910;-1.514;2023-07-13T11:54:48;4.78;;;1.67;;
47958;SDS011;33718;50.910;-1.514;2023-07-13T11:57:06;7.30;;;1.70;;
47958;SDS011;33718;50.910;-1.514;2023-07-13T11:59:33;8.43;;;1.70;;
47958;SDS011;33718;50.910;-1.514;2023-07-13T12:01:49;6.07;;;1.90;;
47958;SDS011;33718;50.910;-1.514;2023-07-13T12:03:55;7.93;;;1.50;;
47958;SDS011;33718;50.910;-1.514;2023-07-13T12:06:29;5.38;;;1.15;;
47958;SDS011;33718;50.910;-1.514;2023-07-13T12:08:39;8.32;;;1.65;;
47958;SDS011;33718;50.910;-1.514;2023-07-13T12:10:42;6.13;;;1.75;;
47958;SDS011;33718;50.910;-1.514;2023-07-13T12:12:55;9.32;;;1.73;;
47958;SDS011;33718;50.910;-1.514;2023-07-13T12:15:04;6.10;;;1.63;;
47958;SDS011;33718;50.910;-1.514;2023-07-13T12:17:09;7.90;;;2.20;;
47958;SDS011;33718;50.910;-1.514;2023-07-13T12:19:18;7.82;;;2.15;;
47958;SDS011;33718;50.910;-1.514;2023-07-13T12:21:23;6.03;;;1.40;;
47958;SDS011;33718;50.910;-1.514;2023-07-13T12:23:31;7.18;;;2.08;;
47958;SDS011;33718;50.910;-1.514;2023-07-13T12:25:37;7.25;;;2.10;;
47958;SDS011;33718;50.910;-1.514;2023-07-13T12:27:42;7.85;;;2.28;;
47958;SDS011;33718;50.910;-1.514;2023-07-13T12:30:01;7.47;;;1.50;;
47958;SDS011;33718;50.910;-1.514;2023-07-13T12:32:08;7.85;;;2.00;;
47958;SDS011;33718;50.910;-1.514;2023-07-13T12:34:11;5.90;;;2.05;;
47958;SDS011;33718;50.910;-1.514;2023-07-13T12:36:13;7.60;;;2.10;;
47958;SDS011;33718;50.910;-1.514;2023-07-13T12:38:15;6.47;;;1.92;;
47958;SDS011;33718;50.910;-1.514;2023-07-13T12:40:18;11.10;;;1.90;;
47958;SDS011;33718;50.910;-1.514;2023-07-13T12:42:24;8.27;;;1.45;;
47958;SDS011;33718;50.910;-1.514;2023-07-13T12:44:29;8.50;;;2.10;;
47958;SDS011;33718;50.910;-1.514;2023-07-13T12:46:34;8.98;;;1.88;;
47958;SDS011;33718;50.910;-1.514;2023-07-13T12:48:39;9.15;;;1.60;;
47958;SDS011;33718;50.910;-1.514;2023-07-13T12:50:55;5.70;;;2.25;;
47958;SDS011;33718;50.910;-1.514;2023-07-13T12:52:59;6.70;;;2.47;;
47958;SDS011;33718;50.910;-1.514;2023-07-13T12:55:10;7.18;;;1.50;;
47958;SDS011;33718;50.910;-1.514;2023-07-13T12:57:16;10.27;;;1.65;;
47958;SDS011;33718;50.910;-1.514;2023-07-13T12:59:20;4.85;;;1.45;;
47958;SDS011;33718;50.910;-1.514;2023-07-13T13:01:28;6.55;;;1.77;;
47958;SDS011;33718;50.910;-1.514;2023-07-13T13:03:37;4.72;;;1.55;;
47958;SDS011;33718;50.910;-1.514;2023-07-13T13:05:42;5.15;;;1.80;;
47958;SDS011;33718;50.910;-1.514;2023-07-13T13:08:03;6.47;;;1.50;;
47958;SDS011;33718;50.910;-1.514;2023-07-13T13:10:13;8.43;;;1.95;;
47958;SDS011;33718;50.910;-1.514;2023-07-13T13:12:15;7.65;;;1.63;;
47958;SDS011;33718;50.910;-1.514;2023-07-13T13:14:21;6.95;;;1.80;;
47958;SDS011;33718;50.910;-1.514;2023-07-13T13:18:45;8.48;;;2.67;;
47958;SDS011;33718;50.910;-1.514;2023-07-13T13:20:47;7.97;;;2.13;;
47958;SDS011;33718;50.910;-1.514;2023-07-13T13:22:49;11.10;;;2.63;;
47958;SDS011;33718;50.910;-1.514;2023-07-13T13:24:54;6.07;;;1.90;;
47958;SDS011;33718;50.910;-1.514;2023-07-13T13:26:55;10.00;;;2.03;;